Time;durP1;ratioP1;P1;durP2;ratioP2;P2;SDS_P1;SDS_P2;PMS_P1;PMS_P2;Temp;Humidity;BMP_temperature;BMP_pressure;BME280_temperature;BME280_humidity;BME280_pressure;Samples;Min_cycle;Max_cycle;Signal;HPM_P1;HPM_P2
2023/06/28 00:00:51;;;;;;;29.07;2.23;;;;;;;25.45;58.46;99430.41;7314240;19;131269;-40
2023/06/28 00:03:16;;;;;;;22.83;1.83;;;;;;;25.37;58.25;99417.28;7314499;19;129216;-41
2023/06/28 00:05:42;;;;;;;43.53;2.97;;;;;;;25.44;58.27;99434.03;7314964;19;129331;-40
2023/06/28 00:08:07;;;;;;;42.00;3.33;;;;;;;25.47;58.60;99428.41;7312853;19;130101;-39
2023/06/28 00:10:32;;;;;;;23.93;2.13;;;;;;;25.47;58.17;99442.41;7314851;19;129296;-41
2023/06/28 00:12:58;;;;;;;41.70;2.93;;;;;;;25.45;58.61;99425.94;7314467;19;129781;-41
2023/06/28 00:15:23;;;;;;;39.73;2.80;;;;;;;25.46;58.53;99426.78;7314875;19;128806;-39
2023/06/28 00:17:48;;;;;;;21.80;1.87;;;;;;;25.46;58.78;99429.41;7314612;19;129184;-39
2023/06/28 00:20:14;;;;;;;20.50;1.57;;;;;;;25.45;58.17;99425.16;7313282;19;130331;-38
2023/06/28 00:22:39;;;;;;;36.13;2.67;;;;;;;25.43;58.90;99424.50;7313885;19;128997;-38
2023/06/28 00:25:05;;;;;;;44.13;3.23;;;;;;;25.42;58.26;99425.50;7312608;19;128974;-39
2023/06/28 00:27:31;;;;;;;24.30;1.93;;;;;;;25.44;58.95;99423.50;7314535;19;129082;-42
2023/06/28 00:29:57;;;;;;;36.93;3.03;;;;;;;25.45;58.60;99420.69;7312895;19;130420;-41
2023/06/28 00:32:27;;;;;;;44.03;2.85;;;;;;;25.43;59.02;99427.13;7314678;19;129769;-41
2023/06/28 00:34:53;;;;;;;32.33;2.60;;;;;;;25.34;58.58;99407.03;7313497;19;128901;-39
2023/06/28 00:37:18;;;;;;;36.37;2.43;;;;;;;25.36;58.67;99405.09;7315046;19;130178;-39
2023/06/28 00:39:44;;;;;;;52.40;3.43;;;;;;;25.47;58.80;99417.88;7312904;19;129293;-39
2023/06/28 00:42:10;;;;;;;34.43;2.43;;;;;;;25.47;58.58;99421.34;7310996;19;129342;-41
2023/06/28 00:44:36;;;;;;;29.05;2.42;;;;;;;25.48;58.88;99424.81;7314137;19;129397;-40
2023/06/28 00:47:03;;;;;;;24.47;1.90;;;;;;;25.47;58.12;99420.50;7314096;19;129033;-40
2023/06/28 00:49:31;;;;;;;27.52;2.22;;;;;;;25.40;59.06;99422.19;7312485;19;129799;-39
2023/06/28 00:51:57;;;;;;;18.92;1.80;;;;;;;25.46;58.05;99422.34;7311715;19;129146;-41
2023/06/28 00:54:23;;;;;;;37.90;2.70;;;;;;;25.46;58.25;99426.78;7312418;19;129033;-39
2023/06/28 00:56:50;;;;;;;31.97;2.63;;;;;;;25.46;58.40;99424.16;7313062;19;129703;-39
2023/06/28 00:59:15;;;;;;;;;;;;;;;25.54;58.53;99424.13;7312611;19;129509;-42
2023/06/28 01:01:41;;;;;;;30.75;2.30;;;;;;;25.45;58.35;99414.63;7311336;19;129085;-40
2023/06/28 01:04:07;;;;;;;43.67;3.10;;;;;;;25.46;58.20;99424.16;7312583;19;129774;-38
2023/06/28 01:06:36;;;;;;;23.77;1.87;;;;;;;25.44;58.25;99424.31;7313079;19;129489;-39
2023/06/28 01:09:04;;;;;;;31.42;2.47;;;;;;;25.42;58.50;99425.50;7312186;19;130095;-40
2023/06/28 01:11:30;;;;;;;31.35;2.28;;;;;;;25.43;58.58;99432.38;7311506;19;129048;-41
2023/06/28 01:13:56;;;;;;;40.53;2.90;;;;;;;25.45;58.62;99435.69;7313350;19;129398;-40
2023/06/28 01:16:21;;;;;;;16.27;1.53;;;;;;;25.43;58.33;99435.84;7312410;19;130068;-39
2023/06/28 01:18:47;;;;;;;53.90;3.63;;;;;;;25.35;58.52;99419.25;7312290;19;130997;-42
2023/06/28 01:21:14;;;;;;;30.57;2.27;;;;;;;25.42;57.97;99425.50;7311527;19;129000;-42
2023/06/28 01:23:40;;;;;;;28.55;2.17;;;;;;;25.44;58.95;99428.75;7313592;19;128939;-39
2023/06/28 01:26:07;;;;;;;29.77;2.37;;;;;;;25.44;58.51;99439.28;7310541;19;130402;-39
2023/06/28 01:28:34;;;;;;;24.98;1.95;;;;;;;25.45;58.46;99433.06;7311861;19;131081;-41
2023/06/28 01:31:00;;;;;;;39.28;2.83;;;;;;;25.46;58.01;99434.69;7311070;19;129024;-39
2023/06/28 01:33:26;;;;;;;39.30;2.83;;;;;;;25.46;58.62;99437.31;7311223;19;129577;-40
2023/06/28 01:35:52;;;;;;;23.20;1.95;;;;;;;25.46;58.50;99438.13;7312223;19;129143;-39
2023/06/28 01:38:19;;;;;;;6.00;0.83;;;;;;;25.44;58.77;99434.03;7311987;19;129672;-41
2023/06/28 01:40:45;;;;;;;35.65;2.78;;;;;;;25.45;58.68;99441.75;7310706;19;129293;-41
2023/06/28 01:43:10;;;;;;;29.60;2.15;;;;;;;25.46;58.32;99442.56;7312253;19;129335;-42
2023/06/28 01:45:37;;;;;;;23.53;1.80;;;;;;;25.36;58.46;99423.50;7311757;19;129854;-39
2023/06/28 01:48:03;;;;;;;58.95;4.30;;;;;;;25.45;58.17;99447.00;7317876;19;130283;-40
2023/06/28 01:50:29;;;;;;;35.92;2.58;;;;;;;25.46;58.55;99445.22;7318082;19;129131;-41
2023/06/28 01:52:58;;;;;;;20.88;1.65;;;;;;;25.47;58.92;99444.22;7320110;19;129050;-41
2023/06/28 01:55:24;;;;;;;38.10;2.65;;;;;;;25.46;58.43;99442.56;7317703;19;129234;-41
2023/06/28 01:57:49;;;;;;;20.30;1.60;;;;;;;25.47;58.45;99441.56;7317882;19;129315;-42
2023/06/28 02:00:15;;;;;;;36.77;2.67;;;;;;;25.46;58.20;99446.03;7317374;19;129080;-39
2023/06/28 02:02:41;;;;;;;33.30;2.60;;;;;;;25.46;58.63;99450.47;7317527;19;128985;-38
2023/06/28 02:05:07;;;;;;;18.35;1.38;;;;;;;25.44;58.13;99445.38;7318532;19;131113;-39
2023/06/28 02:07:32;;;;;;;27.67;2.10;;;;;;;25.45;58.14;99446.22;7318518;19;129615;-39
2023/06/28 02:09:57;;;;;;;41.90;2.80;;;;;;;25.42;58.68;99442.09;7316655;19;129181;-40
2023/06/28 02:12:23;;;;;;;23.70;1.93;;;;;;;25.45;58.28;99451.47;7319202;19;128950;-42
2023/06/28 02:14:51;;;;;;;25.10;1.90;;;;;;;25.34;58.78;99439.44;7317334;19;130160;-41
2023/06/28 02:17:20;;;;;;;30.92;2.33;;;;;;;25.43;58.18;99453.44;7318321;19;129410;-39
2023/06/28 02:19:46;;;;;;;42.30;2.78;;;;;;;25.42;58.22;99452.63;7316672;19;129716;-39
2023/06/28 02:22:11;;;;;;;22.47;1.83;;;;;;;25.45;58.53;99456.75;7314879;19;128934;-39
2023/06/28 02:24:36;;;;;;;46.87;3.40;;;;;;;25.45;58.61;99446.22;7317167;19;130228;-42
2023/06/28 02:27:02;;;;;;;20.33;1.70;;;;;;;25.45;58.54;99447.00;7317350;19;131251;-42
2023/06/28 02:29:27;;;;;;;43.80;2.87;;;;;;;25.46;58.25;99459.19;7317367;19;129150;-40
2023/06/28 02:31:52;;;;;;;29.67;2.20;;;;;;;25.47;57.74;99470.53;7315372;19;129093;-42
2023/06/28 02:34:18;;;;;;;21.30;1.73;;;;;;;25.48;57.90;99472.19;7318044;19;130079;-40
2023/06/28 02:36:43;;;;;;;47.07;3.33;;;;;;;25.46;57.73;99474.16;7316356;19;129909;-38
2023/06/28 02:39:08;;;;;;;26.50;2.07;;;;;;;25.35;58.29;99448.19;7317290;19;129584;-41
2023/06/28 02:41:34;;;;;;;41.83;2.73;;;;;;;25.46;58.54;99474.16;7314384;19;129191;-41
2023/06/28 02:43:59;;;;;;;22.53;1.77;;;;;;;25.45;58.01;99475.16;7317084;19;129921;-41
2023/06/28 02:46:24;;;;;;;47.47;3.30;;;;;;;25.46;58.52;99463.63;7316273;19;129758;-42
2023/06/28 02:48:50;;;;;;;10.77;1.30;;;;;;;25.47;58.54;99465.25;7316648;19;128957;-39
2023/06/28 02:51:15;;;;;;;21.50;1.53;;;;;;;25.45;58.49;99462.00;7316054;19;129538;-42
2023/06/28 02:53:41;;;;;;;23.40;1.83;;;;;;;25.44;58.13;99466.44;7316425;19;130088;-40
2023/06/28 02:56:06;;;;;;;57.72;3.92;;;;;;;25.45;58.17;99467.28;7316907;19;130096;-40
2023/06/28 02:58:32;;;;;;;25.57;2.03;;;;;;;25.44;58.38;99466.44;7314229;19;129401;-39
2023/06/28 03:00:57;;;;;;;15.43;1.57;;;;;;;25.44;58.35;99470.88;7315124;19;128733;-40
2023/06/28 03:03:23;;;;;;;47.27;3.43;;;;;;;25.45;58.25;99469.91;7314498;19;129275;-40
2023/06/28 03:05:49;;;;;;;46.60;3.03;;;;;;;25.45;57.87;99472.53;7315196;19;129361;-39
2023/06/28 03:08:14;;;;;;;31.67;2.43;;;;;;;25.44;58.21;99468.25;7315499;19;129480;-39
2023/06/28 03:10:40;;;;;;;11.17;1.03;;;;;;;25.43;57.75;99470.06;7315768;19;129285;-40
2023/06/28 03:13:05;;;;;;;27.10;2.10;;;;;;;25.43;58.59;99472.69;7314800;19;129339;-41
2023/06/28 03:15:31;;;;;;;26.80;2.10;;;;;;;25.45;58.19;99468.06;7314659;19;130311;-40
2023/06/28 03:17:56;;;;;;;33.77;2.50;;;;;;;25.45;58.59;99473.34;7316027;19;128775;-42
2023/06/28 03:20:21;;;;;;;41.40;2.87;;;;;;;25.46;57.87;99482.06;7315907;19;129441;-41
2023/06/28 03:22:47;;;;;;;31.53;2.27;;;;;;;25.46;58.27;99482.88;7312623;19;129962;-39
2023/06/28 03:25:12;;;;;;;41.67;2.63;;;;;;;25.36;58.72;99463.00;7316527;19;129704;-39
2023/06/28 03:27:38;;;;;;;21.33;2.00;;;;;;;25.44;58.31;99476.97;7316061;19;129266;-42
2023/06/28 03:30:03;;;;;;;41.80;2.93;;;;;;;25.45;58.55;99469.91;7315193;19;129608;-41
2023/06/28 03:32:29;;;;;;;35.23;2.53;;;;;;;25.45;58.07;99465.44;7314788;19;129209;-40
2023/06/28 03:34:56;;;;;;;32.90;2.43;;;;;;;25.46;58.20;99480.25;7316371;19;129784;-41
2023/06/28 03:37:21;;;;;;;19.02;1.73;;;;;;;25.34;58.26;99455.22;7316189;19;129151;-39
2023/06/28 03:39:47;;;;;;;25.47;1.97;;;;;;;25.44;58.61;99473.50;7315213;19;128947;-39
2023/06/28 03:42:12;;;;;;;44.87;2.93;;;;;;;25.44;58.19;99476.13;7312863;19;129387;-41
2023/06/28 03:44:37;;;;;;;39.70;2.97;;;;;;;25.45;58.51;99477.81;7314477;19;130272;-40
2023/06/28 03:47:03;;;;;;;22.00;1.70;;;;;;;25.45;58.59;99477.81;7315538;19;128921;-41
2023/06/28 03:49:28;;;;;;;27.17;2.10;;;;;;;25.44;58.08;99470.88;7315279;19;130271;-39
2023/06/28 03:51:54;;;;;;;41.80;2.93;;;;;;;25.35;57.74;99462.16;7311426;19;129334;-39
2023/06/28 03:54:19;;;;;;;14.47;1.37;;;;;;;25.45;57.75;99477.81;7313418;19;129435;-41
2023/06/28 03:56:44;;;;;;;22.77;1.73;;;;;;;25.43;58.47;99485.03;7314508;19;130382;-40
2023/06/28 03:59:10;;;;;;;59.27;4.17;;;;;;;25.44;58.51;99481.41;7314095;19;129721;-40
2023/06/28 04:01:35;;;;;;;37.10;2.50;;;;;;;25.43;58.36;99485.03;7311821;19;129152;-39
2023/06/28 04:04:00;;;;;;;34.10;2.50;;;;;;;25.44;58.61;99478.75;7315252;19;130137;-39
2023/06/28 04:06:26;;;;;;;24.77;1.77;;;;;;;25.43;58.14;99490.28;7313371;19;128900;-40
2023/06/28 04:08:51;;;;;;;29.03;2.10;;;;;;;25.42;58.54;99483.41;7313797;19;129861;-40
2023/06/28 04:11:16;;;;;;;40.03;2.63;;;;;;;25.42;58.59;99480.78;7310507;19;130044;-39
2023/06/28 04:13:42;;;;;;;46.40;3.30;;;;;;;25.43;58.29;99492.94;7311967;19;129568;-41
2023/06/28 04:16:07;;;;;;;28.23;2.23;;;;;;;25.43;58.24;99490.28;7310029;19;130585;-41
2023/06/28 04:18:32;;;;;;;46.10;3.07;;;;;;;25.43;57.94;99492.94;7311105;19;130632;-39
2023/06/28 04:20:58;;;;;;;35.33;2.50;;;;;;;25.42;58.28;99499.19;7312150;19;129190;-41
2023/06/28 04:23:23;;;;;;;33.67;2.43;;;;;;;25.43;57.79;99495.56;7314750;19;129536;-40
2023/06/28 04:25:48;;;;;;;39.63;2.87;;;;;;;25.41;58.57;99492.28;7310349;19;130564;-40
2023/06/28 04:28:14;;;;;;;45.70;3.20;;;;;;;25.44;57.79;99494.56;7312853;19;129216;-40
2023/06/28 04:30:39;;;;;;;26.43;1.97;;;;;;;25.41;58.58;99493.09;7312272;19;129138;-40
2023/06/28 04:33:04;;;;;;;30.20;2.17;;;;;;;25.43;58.27;99495.56;7311617;19;130415;-41
2023/06/28 04:35:34;;;;;;;34.77;2.33;;;;;;;25.43;58.58;99500.81;7313787;19;129348;-38
2023/06/28 04:38:03;;;;;;;43.45;2.95;;;;;;;25.42;58.46;99499.19;7309593;19;129674;-37
2023/06/28 04:40:30;;;;;;;34.70;2.42;;;;;;;25.44;58.55;99516.44;7312167;19;129409;-38
2023/06/28 04:42:55;;;;;;;89.32;6.13;;;;;;;25.42;57.85;99510.53;7306576;19;129356;-40
2023/06/28 04:45:20;;;;;;;29.13;2.13;;;;;;;25.42;58.15;99513.16;7313066;19;128959;-38
2023/06/28 04:47:46;;;;;;;52.50;3.77;;;;;;;25.43;58.02;99517.44;7312470;19;129091;-40
2023/06/28 04:50:11;;;;;;;43.60;2.80;;;;;;;25.44;58.34;99523.50;7309214;19;129901;-40
2023/06/28 04:52:36;;;;;;;25.93;1.97;;;;;;;25.41;58.44;99523.84;7313904;19;129575;-39
2023/06/28 04:55:02;;;;;;;31.00;2.20;;;;;;;25.43;58.54;99521.88;7308295;19;129763;-40
2023/06/28 04:57:27;;;;;;;34.30;2.50;;;;;;;25.43;57.91;99521.88;7311962;19;129106;-40
2023/06/28 04:59:53;;;;;;;28.43;2.30;;;;;;;25.42;57.93;99534.22;7314033;19;129698;-38
2023/06/28 05:02:21;;;;;;;22.33;1.90;;;;;;;25.43;58.27;99532.41;7303166;19;130542;-39
2023/06/28 05:04:46;;;;;;;54.90;3.88;;;;;;;25.34;58.41;99520.19;7307311;19;129081;-39
2023/06/28 05:07:11;;;;;;;39.33;2.70;;;;;;;25.43;58.04;99527.16;7311096;19;129889;-38
2023/06/28 05:09:38;;;;;;;76.30;5.13;;;;;;;25.33;58.24;99518.56;7311279;19;129539;-42
2023/06/28 05:12:04;;;;;;;;;;;;;;;25.42;58.28;99512.34;7307147;19;133007;-38
2023/06/28 05:14:30;;;;;;;33.55;2.42;;;;;;;25.45;57.63;99525.19;7313187;19;129794;-38
2023/06/28 05:16:56;;;;;;;33.88;2.60;;;;;;;25.42;58.40;99525.50;7307608;19;129457;-39
2023/06/28 05:19:23;;;;;;;60.43;4.50;;;;;;;25.42;57.03;99525.50;7308628;19;130312;-38
2023/06/28 05:21:48;;;;;;;44.67;3.30;;;;;;;25.40;57.96;99516.97;7300290;19;129470;-38
2023/06/28 05:24:15;;;;;;;30.57;2.47;;;;;;;25.38;58.40;99526.81;7311980;19;129255;-38
2023/06/28 05:26:41;;;;;;;53.58;3.92;;;;;;;25.37;57.80;99517.28;7309261;19;129881;-39
2023/06/28 05:29:06;;;;;;;51.90;3.97;;;;;;;25.36;58.29;99521.72;7310371;19;129498;-40
2023/06/28 05:31:32;;;;;;;28.47;2.23;;;;;;;25.36;58.74;99515.63;7310218;19;130508;-38
2023/06/28 05:33:57;;;;;;;34.57;2.53;;;;;;;25.36;58.13;99515.63;7312445;19;129193;-38
2023/06/28 05:36:22;;;;;;;30.27;2.30;;;;;;;25.36;58.63;99515.63;7312584;19;129492;-38
2023/06/28 05:38:48;;;;;;;23.57;2.20;;;;;;;25.35;58.22;99525.31;7311858;19;129372;-38
2023/06/28 05:41:17;;;;;;;36.07;2.80;;;;;;;25.33;58.57;99521.19;7308009;19;130268;-39
2023/06/28 05:43:44;;;;;;;34.17;2.55;;;;;;;25.35;58.64;99524.53;7310966;19;129358;-37
2023/06/28 05:46:09;;;;;;;;;;;;;;;25.44;58.59;99526.16;7311510;19;129762;-40
2023/06/28 05:48:35;;;;;;;18.83;1.75;;;;;;;25.33;58.56;99529.09;7312134;19;130644;-38
2023/06/28 05:51:00;;;;;;;24.50;2.20;;;;;;;25.37;58.95;99533.88;7310991;19;129238;-38
2023/06/28 05:53:26;;;;;;;33.80;2.53;;;;;;;25.35;58.18;99537.69;7312274;19;129033;-39
2023/06/28 05:55:51;;;;;;;50.10;3.63;;;;;;;25.30;58.96;99527.59;7312032;19;128802;-39
2023/06/28 05:58:18;;;;;;;21.00;1.87;;;;;;;25.35;58.78;99527.97;7311855;19;130287;-38
2023/06/28 06:00:43;;;;;;;15.77;1.63;;;;;;;25.36;58.58;99536.69;7310495;19;129363;-38
2023/06/28 06:03:09;;;;;;;34.03;2.67;;;;;;;25.35;58.71;99524.53;7309464;19;129009;-40
2023/06/28 06:05:34;;;;;;;26.30;2.17;;;;;;;25.34;59.00;99531.56;7312243;19;128871;-39
2023/06/28 06:07:59;;;;;;;43.33;3.47;;;;;;;25.33;58.70;99532.56;7312036;19;129836;-39
2023/06/28 06:10:25;;;;;;;28.07;2.47;;;;;;;25.33;58.92;99526.47;7309876;19;129305;-38
2023/06/28 06:12:53;;;;;;;33.23;2.57;;;;;;;25.34;58.28;99536.00;7311608;19;128967;-38
2023/06/28 06:15:18;;;;;;;23.20;1.85;;;;;;;25.34;58.64;99528.09;7312435;19;129084;-37
2023/06/28 06:17:44;;;;;;;24.90;2.13;;;;;;;25.33;58.90;99532.56;7311374;19;129968;-38
2023/06/28 06:20:10;;;;;;;27.63;2.30;;;;;;;25.32;58.61;99530.09;7309488;19;129627;-38
2023/06/28 06:22:35;;;;;;;60.27;3.83;;;;;;;25.34;58.30;99536.00;7310090;19;128798;-39
2023/06/28 06:25:00;;;;;;;17.70;1.63;;;;;;;25.33;58.38;99537.00;7311596;19;129267;-39
2023/06/28 06:27:26;;;;;;;29.00;2.43;;;;;;;25.32;58.68;99536.16;7310966;19;129085;-38
2023/06/28 06:29:51;;;;;;;25.93;2.00;;;;;;;25.33;58.56;99526.47;7311282;19;130129;-39
2023/06/28 06:32:16;;;;;;;37.33;2.50;;;;;;;25.32;59.06;99532.72;7310941;19;128865;-40
2023/06/28 06:34:42;;;;;;;33.57;2.83;;;;;;;25.31;59.12;99536.31;7318188;19;129394;-38
2023/06/28 06:37:12;;;;;;;25.60;2.03;;;;;;;25.32;59.07;99540.63;7318606;19;130692;-39
2023/06/28 06:39:37;;;;;;;33.53;2.47;;;;;;;25.31;58.74;99538.97;7316275;19;129319;-39
2023/06/28 06:42:03;;;;;;;33.77;2.50;;;;;;;25.31;58.55;99538.97;7315562;19;128881;-40
2023/06/28 06:44:28;;;;;;;11.53;1.00;;;;;;;25.30;58.38;99526.81;7317271;19;128827;-39
2023/06/28 06:46:53;;;;;;;24.57;1.87;;;;;;;25.29;59.04;99539.13;7317224;19;129324;-38
2023/06/28 06:49:20;;;;;;;34.20;2.33;;;;;;;25.29;58.61;99546.19;7316183;19;130149;-39
2023/06/28 06:51:46;;;;;;;28.10;2.42;;;;;;;25.27;58.94;99543.72;7315016;19;131288;-39
2023/06/28 06:54:11;;;;;;;35.83;2.63;;;;;;;25.28;59.00;99549.81;7317632;19;128977;-39
2023/06/28 06:56:36;;;;;;;4.73;0.80;;;;;;;25.26;58.97;99541.25;7315418;19;129787;-38
2023/06/28 06:59:02;;;;;;;38.53;2.70;;;;;;;25.26;59.24;99546.53;7315761;19;129411;-38
2023/06/28 07:01:29;;;;;;;26.63;2.23;;;;;;;25.26;59.40;99549.16;7314840;19;128902;-39
2023/06/28 07:03:55;;;;;;;22.80;1.83;;;;;;;25.27;59.14;99548.19;7316644;19;129695;-38
2023/06/28 07:06:20;;;;;;;20.20;1.67;;;;;;;25.26;59.04;99543.91;7314486;19;129749;-38
2023/06/28 07:08:46;;;;;;;39.30;2.73;;;;;;;25.26;58.97;99546.53;7316637;19;129266;-37
2023/06/28 07:11:12;;;;;;;24.52;2.03;;;;;;;25.26;59.08;99549.16;7315348;19;129365;-40
2023/06/28 07:13:38;;;;;;;23.50;1.80;;;;;;;25.25;58.65;99544.88;7314992;19;129279;-39
2023/06/28 07:16:03;;;;;;;23.58;1.80;;;;;;;25.15;59.39;99536.34;7315334;19;129288;-39
2023/06/28 07:18:29;;;;;;;40.47;2.80;;;;;;;25.25;59.14;99544.88;7315606;19;129165;-38
2023/06/28 07:20:54;;;;;;;23.70;2.07;;;;;;;25.25;59.00;99539.63;7315409;19;129104;-39
2023/06/28 07:23:20;;;;;;;47.47;3.33;;;;;;;25.25;58.97;99543.09;7313716;19;130551;-37
2023/06/28 07:25:46;;;;;;;27.90;2.57;;;;;;;25.24;59.04;99538.78;7315230;19;130862;-39
2023/06/28 07:28:11;;;;;;;55.13;3.90;;;;;;;25.24;58.58;99551.94;7315385;19;130600;-39
2023/06/28 07:30:53;;;;;;;27.00;1.93;;;;;;;25.27;58.96;99553.44;7315740;19;129016;-40
2023/06/28 07:33:21;;;;;;;48.10;3.35;;;;;;;25.23;59.16;99541.59;7315558;19;129338;-39
2023/06/28 07:35:46;;;;;;;25.52;2.05;;;;;;;25.15;58.69;99539.78;7315903;19;129666;-38
2023/06/28 07:38:11;;;;;;;39.27;2.93;;;;;;;25.23;59.52;99557.38;7314625;19;129938;-38
2023/06/28 07:40:37;;;;;;;29.97;2.33;;;;;;;25.23;59.23;99552.13;7314838;19;129100;-39
2023/06/28 07:43:02;;;;;;;23.20;1.83;;;;;;;25.22;59.35;99555.75;7314523;19;129511;-38
2023/06/28 07:45:28;;;;;;;22.10;1.70;;;;;;;25.12;59.01;99528.78;7313002;19;130136;-38
2023/06/28 07:47:53;;;;;;;49.23;3.40;;;;;;;25.19;59.45;99535.00;7314822;19;129478;-39
2023/06/28 07:50:20;;;;;;;28.87;2.30;;;;;;;25.20;58.80;99532.22;7313727;19;129188;-38
2023/06/28 07:52:46;;;;;;;22.73;2.00;;;;;;;25.19;59.04;99540.25;7315545;19;128860;-39
2023/06/28 07:55:11;;;;;;;23.47;1.63;;;;;;;25.19;58.87;99540.25;7314218;19;129219;-37
2023/06/28 07:57:37;;;;;;;41.57;2.90;;;;;;;25.13;58.97;99539.13;7315367;19;130379;-38
2023/06/28 08:00:04;;;;;;;24.43;1.90;;;;;;;25.18;59.08;99544.72;7314643;19;129106;-39
2023/06/28 08:02:29;;;;;;;23.40;2.00;;;;;;;25.18;59.45;99543.91;7314352;19;128998;-39
2023/06/28 08:04:55;;;;;;;25.03;2.10;;;;;;;25.19;59.48;99542.91;7314427;19;128940;-39
2023/06/28 08:07:20;;;;;;;38.90;2.87;;;;;;;25.18;59.53;99543.91;7314090;19;129674;-38
2023/06/28 08:09:45;;;;;;;26.77;2.07;;;;;;;25.18;59.35;99538.63;7314613;19;129182;-40
2023/06/28 08:12:10;;;;;;;9.13;1.10;;;;;;;25.18;59.50;99543.91;7312977;19;129117;-38
2023/06/28 08:14:36;;;;;;;35.73;2.60;;;;;;;25.18;59.05;99538.63;7314330;19;130023;-39
2023/06/28 08:17:02;;;;;;;41.20;2.97;;;;;;;25.17;59.35;99547.53;7315231;19;130429;-39
2023/06/28 08:19:27;;;;;;;39.40;2.80;;;;;;;25.18;58.96;99549.16;7314452;19;129401;-37
2023/06/28 08:21:53;;;;;;;23.57;1.90;;;;;;;25.20;59.41;99555.09;7312015;19;128910;-39
2023/06/28 08:24:18;;;;;;;30.80;2.13;;;;;;;25.19;59.25;99542.91;7314488;19;129527;-39
2023/06/28 08:26:45;;;;;;;34.43;2.40;;;;;;;25.18;59.53;99543.91;7313268;19;129660;-41
2023/06/28 08:29:11;;;;;;;35.42;2.58;;;;;;;25.17;59.27;99539.63;7315342;19;129389;-39
2023/06/28 08:31:37;;;;;;;23.93;1.77;;;;;;;25.16;58.99;99540.59;7312398;19;129408;-40
2023/06/28 08:34:03;;;;;;;38.20;2.87;;;;;;;25.17;59.22;99542.25;7314160;19;130150;-41
2023/06/28 08:36:29;;;;;;;26.97;2.00;;;;;;;25.16;59.60;99537.97;7313150;19;131968;-39
2023/06/28 08:38:54;;;;;;;5.40;0.70;;;;;;;25.16;59.08;99528.28;7313939;19;128887;-39
2023/06/28 08:41:22;;;;;;;32.53;2.33;;;;;;;25.15;59.56;99539.78;7313347;19;128745;-38
2023/06/28 08:43:53;;;;;;;22.27;1.80;;;;;;;25.16;59.51;99532.69;7311985;19;129067;-39
2023/06/28 08:46:18;;;;;;;35.95;2.47;;;;;;;25.15;59.72;99541.59;7314470;19;129623;-42
2023/06/28 08:48:45;;;;;;;33.50;2.57;;;;;;;25.15;59.22;99531.91;7313050;19;129061;-39
2023/06/28 08:51:11;;;;;;;22.80;2.00;;;;;;;25.15;59.79;99523.19;7311003;19;129000;-40
2023/06/28 08:53:37;;;;;;;36.63;2.60;;;;;;;25.13;59.42;99525.16;7312827;19;130232;-41
2023/06/28 08:56:03;;;;;;;17.80;1.50;;;;;;;25.12;59.54;99539.28;7313910;19;129660;-39
2023/06/28 08:58:30;;;;;;;24.07;1.73;;;;;;;25.14;59.46;99537.34;7313123;19;129860;-42
2023/06/28 09:00:58;;;;;;;9.48;1.02;;;;;;;25.14;59.14;99537.34;7312897;19;129951;-40
2023/06/28 09:03:24;;;;;;;36.28;2.95;;;;;;;25.14;59.09;99527.59;7310604;19;129159;-39
2023/06/28 09:05:51;;;;;;;38.05;2.67;;;;;;;25.15;59.04;99528.44;7313803;19;129509;-41
2023/06/28 09:08:18;;;;;;;22.92;1.75;;;;;;;25.11;59.13;99529.75;7312427;19;129819;-42
2023/06/28 09:10:45;;;;;;;26.35;1.92;;;;;;;25.13;59.33;99527.78;7312893;19;128932;-39
2023/06/28 09:13:11;;;;;;;29.52;2.20;;;;;;;25.12;59.11;99519.06;7313191;19;129424;-39
2023/06/28 09:15:36;;;;;;;32.37;2.37;;;;;;;25.13;59.37;99520.72;7313240;19;129437;-39
2023/06/28 09:18:02;;;;;;;67.60;5.07;;;;;;;25.13;59.87;99528.59;7312844;19;128948;-39
2023/06/28 09:20:27;;;;;;;11.80;0.97;;;;;;;25.07;59.64;99521.34;7312290;19;129061;-40
2023/06/28 09:22:55;;;;;;;37.43;2.67;;;;;;;25.14;59.42;99535.50;7312184;19;130019;-40
2023/06/28 09:25:21;;;;;;;37.95;2.72;;;;;;;25.13;59.58;99533.03;7312336;19;129383;-39
2023/06/28 09:27:46;;;;;;;21.90;1.87;;;;;;;25.13;59.38;99536.50;7313105;19;129143;-38
2023/06/28 09:30:17;;;;;;;10.20;1.00;;;;;;;25.14;59.49;99527.59;7312237;19;129262;-39
2023/06/28 09:32:45;;;;;;;31.25;2.17;;;;;;;25.05;59.14;99518.09;7311753;19;129524;-40
2023/06/28 09:35:10;;;;;;;42.35;2.78;;;;;;;25.12;59.50;99524.31;7312563;19;131098;-38
2023/06/28 09:37:38;;;;;;;15.93;1.40;;;;;;;25.12;59.89;99534.84;7312016;19;129005;-41
2023/06/28 09:40:06;;;;;;;28.10;2.28;;;;;;;25.12;59.89;99523.50;7312019;19;128919;-42
2023/06/28 09:42:31;;;;;;;28.98;1.92;;;;;;;25.12;59.35;99515.63;7311031;19;129260;-39
2023/06/28 09:44:57;;;;;;;36.63;2.57;;;;;;;25.11;59.63;99514.78;7312269;19;129185;-38
2023/06/28 09:47:31;;;;;;;21.27;1.60;;;;;;;25.14;59.99;99516.28;7312992;19;129001;-41
2023/06/28 09:49:57;;;;;;;27.50;2.03;;;;;;;25.03;59.46;99499.00;7312826;19;129476;-39
2023/06/28 09:52:22;;;;;;;13.90;1.40;;;;;;;25.12;59.98;99513.00;7308508;19;129273;-42
2023/06/28 09:54:49;;;;;;;41.63;2.63;;;;;;;25.13;60.07;99520.72;7312205;19;129488;-40
2023/06/28 09:57:16;;;;;;;10.90;1.17;;;;;;;25.09;59.23;99508.84;7311901;19;128981;-40
2023/06/28 09:59:43;;;;;;;26.13;2.10;;;;;;;25.12;60.05;99523.50;7311006;19;129721;-38
2023/06/28 10:02:09;;;;;;;37.88;2.65;;;;;;;25.10;59.42;99520.22;7308848;19;129897;-40
2023/06/28 10:04:36;;;;;;;37.33;2.57;;;;;;;25.11;59.24;99513.94;7311977;19;129764;-41
2023/06/28 10:07:03;;;;;;;31.75;2.22;;;;;;;25.11;59.78;99508.69;7313994;19;129774;-42
2023/06/28 10:09:34;;;;;;;31.88;2.53;;;;;;;25.10;59.51;99504.44;7318278;19;129523;-41
2023/06/28 10:12:03;;;;;;;25.33;2.08;;;;;;;25.00;59.76;99490.63;7317540;19;130847;-39
2023/06/28 10:14:31;;;;;;;37.75;2.50;;;;;;;25.10;59.43;99509.69;7318031;19;130386;-39
2023/06/28 10:16:59;;;;;;;30.98;2.15;;;;;;;25.10;59.92;99504.44;7319353;19;128924;-39
2023/06/28 10:19:26;;;;;;;27.10;2.05;;;;;;;25.10;59.68;99513.16;7316570;19;128829;-39
2023/06/28 10:21:51;;;;;;;23.52;1.75;;;;;;;25.10;59.84;99500.00;7315900;19;130076;-40
2023/06/28 10:24:17;;;;;;;34.17;2.43;;;;;;;25.10;59.27;99496.53;7316709;19;129586;-40
2023/06/28 10:26:43;;;;;;;32.10;2.43;;;;;;;25.11;59.56;99504.25;7318286;19;129179;-40
2023/06/28 10:29:09;;;;;;;24.03;1.87;;;;;;;25.10;59.82;99499.16;7317169;19;128812;-38
2023/06/28 10:31:34;;;;;;;24.13;1.97;;;;;;;25.09;59.84;99493.06;7316178;19;129319;-37
2023/06/28 10:34:00;;;;;;;21.57;1.63;;;;;;;25.10;59.66;99493.91;7317219;19;129414;-38
2023/06/28 10:36:26;;;;;;;30.10;2.08;;;;;;;25.09;59.76;99487.81;7318209;19;130605;-39
2023/06/28 10:38:52;;;;;;;21.40;1.63;;;;;;;25.10;59.82;99493.91;7316978;19;129524;-38
2023/06/28 10:41:19;;;;;;;24.97;2.03;;;;;;;25.10;59.75;99493.91;7316576;19;129364;-39
2023/06/28 10:43:45;;;;;;;65.78;4.25;;;;;;;25.08;60.01;99491.44;7314442;19;129321;-39
2023/06/28 10:46:29;;;;;;;8.73;0.97;;;;;;;25.12;59.77;99491.94;7318810;19;128959;-39
2023/06/28 10:48:56;;;;;;;41.92;2.88;;;;;;;25.08;59.75;99499.34;7317072;19;128750;-38
2023/06/28 10:51:25;;;;;;;12.30;1.13;;;;;;;25.08;59.38;99491.44;7316124;19;130269;-39
2023/06/28 10:53:59;;;;;;;40.83;3.08;;;;;;;25.07;60.12;99494.25;7316760;19;129335;-40
2023/06/28 10:56:35;;;;;;;27.02;2.17;;;;;;;25.10;59.84;99486.00;7316809;19;128855;-38
2023/06/28 10:59:05;;;;;;;38.20;2.50;;;;;;;25.01;59.78;99477.28;7317234;19;129400;-38
2023/06/28 11:01:32;;;;;;;22.35;1.77;;;;;;;25.09;59.68;99489.66;7315558;19;129405;-38
2023/06/28 11:04:17;;;;;;;24.10;1.73;;;;;;;25.09;59.70;99493.06;7314574;19;129733;-38
2023/06/28 11:06:43;;;;;;;12.15;1.30;;;;;;;25.08;59.15;99490.63;7316462;19;128967;-38
2023/06/28 11:09:13;;;;;;;20.83;1.50;;;;;;;25.07;59.97;99492.41;7316992;19;129092;-38
2023/06/28 11:11:55;;;;;;;25.10;2.10;;;;;;;25.07;59.65;99499.50;7313687;19;129422;-38
2023/06/28 11:14:25;;;;;;;29.05;2.20;;;;;;;25.07;60.08;99499.50;7316267;19;129317;-38